sensor_id;sensor_type;location;lat;lon;timestamp;P1;durP1;ratioP1;P2;durP2;ratioP2
19404;SDS011;9838;49.384;8.292;2023-04-25T00:08:02;0.70;;;0.50;;
19404;SDS011;9838;49.384;8.292;2023-04-25T00:18:04;0.93;;;0.60;;
19404;SDS011;9838;49.384;8.292;2023-04-25T00:28:06;0.80;;;0.53;;
19404;SDS011;9838;49.384;8.292;2023-04-25T00:38:08;0.50;;;0.40;;
19404;SDS011;9838;49.384;8.292;2023-04-25T00:48:10;0.97;;;0.50;;
19404;SDS011;9838;49.384;8.292;2023-04-25T00:58:12;0.63;;;0.47;;
19404;SDS011;9838;49.384;8.292;2023-04-25T01:08:14;0.90;;;0.67;;
19404;SDS011;9838;49.384;8.292;2023-04-25T01:18:15;1.37;;;0.90;;
19404;SDS011;9838;49.384;8.292;2023-04-25T01:28:17;2.67;;;0.90;;
19404;SDS011;9838;49.384;8.292;2023-04-25T01:38:20;1.40;;;0.97;;
19404;SDS011;9838;49.384;8.292;2023-04-25T01:48:21;0.93;;;0.63;;
19404;SDS011;9838;49.384;8.292;2023-04-25T01:58:23;2.03;;;0.80;;
19404;SDS011;9838;49.384;8.292;2023-04-25T02:08:38;1.20;;;0.77;;
19404;SDS011;9838;49.384;8.292;2023-04-25T02:18:40;1.80;;;0.83;;
19404;SDS011;9838;49.384;8.292;2023-04-25T02:28:42;0.87;;;0.63;;
19404;SDS011;9838;49.384;8.292;2023-04-25T02:38:43;1.27;;;0.73;;
19404;SDS011;9838;49.384;8.292;2023-04-25T02:48:45;1.13;;;0.63;;
19404;SDS011;9838;49.384;8.292;2023-04-25T02:58:47;1.03;;;0.70;;
19404;SDS011;9838;49.384;8.292;2023-04-25T03:08:49;0.50;;;0.50;;
19404;SDS011;9838;49.384;8.292;2023-04-25T03:18:52;1.33;;;0.67;;
19404;SDS011;9838;49.384;8.292;2023-04-25T03:28:54;1.30;;;0.87;;
19404;SDS011;9838;49.384;8.292;2023-04-25T03:38:56;1.93;;;0.97;;
19404;SDS011;9838;49.384;8.292;2023-04-25T03:48:58;1.20;;;0.80;;
19404;SDS011;9838;49.384;8.292;2023-04-25T03:59:09;1.17;;;0.80;;
19404;SDS011;9838;49.384;8.292;2023-04-25T04:09:11;1.20;;;0.60;;
19404;SDS011;9838;49.384;8.292;2023-04-25T04:19:15;0.90;;;0.60;;
19404;SDS011;9838;49.384;8.292;2023-04-25T04:29:24;0.90;;;0.60;;
19404;SDS011;9838;49.384;8.292;2023-04-25T04:39:41;1.03;;;0.60;;
19404;SDS011;9838;49.384;8.292;2023-04-25T04:49:56;1.00;;;0.70;;
19404;SDS011;9838;49.384;8.292;2023-04-25T05:00:06;1.07;;;0.70;;
19404;SDS011;9838;49.384;8.292;2023-04-25T05:10:34;1.30;;;0.80;;
19404;SDS011;9838;49.384;8.292;2023-04-25T05:20:36;0.93;;;0.67;;
19404;SDS011;9838;49.384;8.292;2023-04-25T05:30:46;1.40;;;0.90;;
19404;SDS011;9838;49.384;8.292;2023-04-25T05:40:54;1.00;;;0.70;;
19404;SDS011;9838;49.384;8.292;2023-04-25T05:51:16;1.27;;;0.80;;
19404;SDS011;9838;49.384;8.292;2023-04-25T06:01:45;1.57;;;1.10;;
19404;SDS011;9838;49.384;8.292;2023-04-25T06:11:47;1.20;;;0.90;;
19404;SDS011;9838;49.384;8.292;2023-04-25T06:21:49;1.30;;;0.93;;
19404;SDS011;9838;49.384;8.292;2023-04-25T06:31:52;2.00;;;1.20;;
19404;SDS011;9838;49.384;8.292;2023-04-25T06:41:55;1.57;;;1.00;;
19404;SDS011;9838;49.384;8.292;2023-04-25T06:52:26;1.70;;;1.13;;
19404;SDS011;9838;49.384;8.292;2023-04-25T07:02:28;1.90;;;1.03;;
19404;SDS011;9838;49.384;8.292;2023-04-25T07:12:30;1.80;;;1.30;;
19404;SDS011;9838;49.384;8.292;2023-04-25T07:22:32;2.47;;;1.47;;
19404;SDS011;9838;49.384;8.292;2023-04-25T07:32:34;1.47;;;1.10;;
19404;SDS011;9838;49.384;8.292;2023-04-25T07:42:36;2.20;;;1.40;;
19404;SDS011;9838;49.384;8.292;2023-04-25T07:52:40;2.60;;;1.20;;
19404;SDS011;9838;49.384;8.292;2023-04-25T08:02:55;2.37;;;1.70;;
19404;SDS011;9838;49.384;8.292;2023-04-25T08:12:58;3.93;;;1.30;;
19404;SDS011;9838;49.384;8.292;2023-04-25T08:23:00;2.93;;;1.17;;
19404;SDS011;9838;49.384;8.292;2023-04-25T08:33:17;2.40;;;1.30;;
19404;SDS011;9838;49.384;8.292;2023-04-25T08:43:45;2.67;;;1.70;;
19404;SDS011;9838;49.384;8.292;2023-04-25T08:53:47;5.37;;;1.60;;
19404;SDS011;9838;49.384;8.292;2023-04-25T09:03:50;3.50;;;1.40;;
19404;SDS011;9838;49.384;8.292;2023-04-25T09:14:09;1.30;;;0.77;;
19404;SDS011;9838;49.384;8.292;2023-04-25T09:34:39;3.60;;;1.33;;
19404;SDS011;9838;49.384;8.292;2023-04-25T09:44:43;3.17;;;1.30;;
19404;SDS011;9838;49.384;8.292;2023-04-25T09:54:47;1.77;;;0.90;;
19404;SDS011;9838;49.384;8.292;2023-04-25T10:04:54;1.60;;;0.93;;
19404;SDS011;9838;49.384;8.292;2023-04-25T10:15:07;1.00;;;0.63;;
19404;SDS011;9838;49.384;8.292;2023-04-25T10:25:10;2.53;;;1.17;;
19404;SDS011;9838;49.384;8.292;2023-04-25T10:35:16;3.17;;;1.20;;
19404;SDS011;9838;49.384;8.292;2023-04-25T10:45:18;2.30;;;1.20;;
19404;SDS011;9838;49.384;8.292;2023-04-25T10:55:21;1.30;;;0.80;;
19404;SDS011;9838;49.384;8.292;2023-04-25T11:15:24;2.67;;;0.83;;
19404;SDS011;9838;49.384;8.292;2023-04-25T11:25:26;2.30;;;1.30;;
19404;SDS011;9838;49.384;8.292;2023-04-25T11:35:28;3.17;;;1.00;;
19404;SDS011;9838;49.384;8.292;2023-04-25T11:45:30;1.67;;;1.00;;
19404;SDS011;9838;49.384;8.292;2023-04-25T11:55:32;2.13;;;0.90;;
19404;SDS011;9838;49.384;8.292;2023-04-25T12:05:33;1.63;;;0.80;;
19404;SDS011;9838;49.384;8.292;2023-04-25T12:15:36;3.40;;;1.10;;
19404;SDS011;9838;49.384;8.292;2023-04-25T12:25:42;1.60;;;0.90;;
19404;SDS011;9838;49.384;8.292;2023-04-25T12:35:45;1.37;;;0.97;;
19404;SDS011;9838;49.384;8.292;2023-04-25T12:45:56;1.30;;;0.90;;
19404;SDS011;9838;49.384;8.292;2023-04-25T12:55:58;1.47;;;0.87;;
19404;SDS011;9838;49.384;8.292;2023-04-25T13:06:00;1.63;;;0.80;;
19404;SDS011;9838;49.384;8.292;2023-04-25T13:16:02;1.47;;;0.97;;
19404;SDS011;9838;49.384;8.292;2023-04-25T13:26:04;2.50;;;0.90;;
19404;SDS011;9838;49.384;8.292;2023-04-25T13:36:06;1.23;;;0.77;;
19404;SDS011;9838;49.384;8.292;2023-04-25T13:46:08;1.67;;;0.80;;
19404;SDS011;9838;49.384;8.292;2023-04-25T13:56:10;3.00;;;1.23;;
19404;SDS011;9838;49.384;8.292;2023-04-25T14:06:12;2.00;;;0.83;;
19404;SDS011;9838;49.384;8.292;2023-04-25T14:16:14;3.13;;;0.80;;
19404;SDS011;9838;49.384;8.292;2023-04-25T14:26:16;1.87;;;0.90;;
19404;SDS011;9838;49.384;8.292;2023-04-25T14:36:18;2.37;;;1.10;;
19404;SDS011;9838;49.384;8.292;2023-04-25T14:46:20;1.50;;;0.80;;
19404;SDS011;9838;49.384;8.292;2023-04-25T14:56:23;3.37;;;0.97;;
19404;SDS011;9838;49.384;8.292;2023-04-25T15:06:24;2.10;;;1.07;;
19404;SDS011;9838;49.384;8.292;2023-04-25T15:16:28;2.47;;;1.33;;
19404;SDS011;9838;49.384;8.292;2023-04-25T15:26:30;5.27;;;1.20;;
19404;SDS011;9838;49.384;8.292;2023-04-25T15:36:31;1.17;;;0.80;;
19404;SDS011;9838;49.384;8.292;2023-04-25T15:46:33;1.40;;;0.90;;
19404;SDS011;9838;49.384;8.292;2023-04-25T15:56:35;2.37;;;0.80;;
19404;SDS011;9838;49.384;8.292;2023-04-25T16:06:36;2.03;;;0.77;;
19404;SDS011;9838;49.384;8.292;2023-04-25T16:16:38;1.40;;;0.67;;
19404;SDS011;9838;49.384;8.292;2023-04-25T16:26:49;2.53;;;1.30;;
19404;SDS011;9838;49.384;8.292;2023-04-25T16:36:50;3.97;;;1.00;;
19404;SDS011;9838;49.384;8.292;2023-04-25T16:46:52;1.23;;;0.80;;
19404;SDS011;9838;49.384;8.292;2023-04-25T16:56:53;1.07;;;0.50;;
19404;SDS011;9838;49.384;8.292;2023-04-25T17:06:55;1.03;;;0.73;;
19404;SDS011;9838;49.384;8.292;2023-04-25T17:16:57;0.80;;;0.30;;
19404;SDS011;9838;49.384;8.292;2023-04-25T17:26:59;1.87;;;0.70;;
19404;SDS011;9838;49.384;8.292;2023-04-25T17:37:01;1.50;;;0.50;;
19404;SDS011;9838;49.384;8.292;2023-04-25T17:47:03;0.67;;;0.40;;
19404;SDS011;9838;49.384;8.292;2023-04-25T17:57:04;1.50;;;0.80;;
19404;SDS011;9838;49.384;8.292;2023-04-25T18:07:06;1.47;;;0.50;;
19404;SDS011;9838;49.384;8.292;2023-04-25T18:17:08;3.60;;;0.70;;
19404;SDS011;9838;49.384;8.292;2023-04-25T18:27:12;1.53;;;0.47;;
19404;SDS011;9838;49.384;8.292;2023-04-25T18:37:14;1.50;;;0.90;;
19404;SDS011;9838;49.384;8.292;2023-04-25T18:47:15;1.90;;;0.80;;
19404;SDS011;9838;49.384;8.292;2023-04-25T18:57:17;1.23;;;0.63;;
19404;SDS011;9838;49.384;8.292;2023-04-25T19:07:19;1.27;;;0.53;;
19404;SDS011;9838;49.384;8.292;2023-04-25T19:17:21;3.93;;;0.87;;
19404;SDS011;9838;49.384;8.292;2023-04-25T19:27:23;1.70;;;0.77;;
19404;SDS011;9838;49.384;8.292;2023-04-25T19:37:25;5.03;;;0.90;;
19404;SDS011;9838;49.384;8.292;2023-04-25T19:47:27;2.63;;;0.90;;
19404;SDS011;9838;49.384;8.292;2023-04-25T19:57:33;1.30;;;0.67;;
19404;SDS011;9838;49.384;8.292;2023-04-25T20:07:37;1.67;;;0.53;;
19404;SDS011;9838;49.384;8.292;2023-04-25T20:17:39;1.20;;;0.50;;
19404;SDS011;9838;49.384;8.292;2023-04-25T20:27:42;1.43;;;0.70;;
19404;SDS011;9838;49.384;8.292;2023-04-25T20:37:44;3.07;;;0.83;;
19404;SDS011;9838;49.384;8.292;2023-04-25T20:47:47;3.13;;;0.70;;
19404;SDS011;9838;49.384;8.292;2023-04-25T20:57:48;1.10;;;0.57;;
19404;SDS011;9838;49.384;8.292;2023-04-25T21:07:50;2.83;;;0.80;;
19404;SDS011;9838;49.384;8.292;2023-04-25T21:17:52;2.40;;;0.67;;
19404;SDS011;9838;49.384;8.292;2023-04-25T21:27:54;2.20;;;0.77;;
19404;SDS011;9838;49.384;8.292;2023-04-25T21:37:56;2.57;;;1.23;;
19404;SDS011;9838;49.384;8.292;2023-04-25T21:47:58;1.20;;;0.70;;
19404;SDS011;9838;49.384;8.292;2023-04-25T21:57:59;2.57;;;0.90;;
19404;SDS011;9838;49.384;8.292;2023-04-25T22:08:01;1.20;;;0.70;;
19404;SDS011;9838;49.384;8.292;2023-04-25T22:18:03;1.70;;;1.10;;
19404;SDS011;9838;49.384;8.292;2023-04-25T22:28:05;0.83;;;0.50;;
19404;SDS011;9838;49.384;8.292;2023-04-25T22:38:07;2.23;;;1.07;;
19404;SDS011;9838;49.384;8.292;2023-04-25T22:48:08;1.17;;;0.63;;
19404;SDS011;9838;49.384;8.292;2023-04-25T22:58:10;1.50;;;0.50;;
19404;SDS011;9838;49.384;8.292;2023-04-25T23:08:12;0.60;;;0.40;;
19404;SDS011;9838;49.384;8.292;2023-04-25T23:18:16;2.10;;;0.70;;
19404;SDS011;9838;49.384;8.292;2023-04-25T23:28:18;1.00;;;0.60;;
19404;SDS011;9838;49.384;8.292;2023-04-25T23:38:20;0.80;;;0.50;;
19404;SDS011;9838;49.384;8.292;2023-04-25T23:48:22;0.40;;;0.30;;
19404;SDS011;9838;49.384;8.292;2023-04-25T23:58:23;0.60;;;0.40;;
